Time;durP1;ratioP1;P1;durP2;ratioP2;P2;SDS_P1;SDS_P2;PMS_P1;PMS_P2;Temp;Humidity;BMP_temperature;BMP_pressure;BME280_temperature;BME280_humidity;BME280_pressure;Samples;Min_cycle;Max_cycle;Signal;HPM_P1;HPM_P2
2023/02/19 00:01:30;;;;;;;;;;;;;;;19.89;53.53;100942.31;4935044;28;1837;-60
2023/02/19 00:03:57;;;;;;;;;;;;;;;19.88;53.56;100955.19;4938525;28;2787;-60
2023/02/19 00:06:24;;;;;;;;;;;;;;;19.88;53.45;100950.19;4936927;29;2713;-60
2023/02/19 00:08:51;;;;;;;;;;;;;;;19.88;53.38;100935.06;4933945;28;2620;-60
2023/02/19 00:11:18;;;;;;;;;;;;;;;19.88;53.38;100949.44;4935576;28;2661;-60
2023/02/19 00:13:45;;;;;;;;;;;;;;;19.87;53.45;100947.97;4935934;28;2887;-60
2023/02/19 00:16:12;;;;;;;;;;;;;;;19.88;53.65;100949.44;4932235;28;2819;-60
2023/02/19 00:18:38;;;;;;;;;;;;;;;19.87;53.57;100947.97;4936028;29;2076;-60
2023/02/19 00:21:05;;;;;;;;;;;;;;;19.85;53.47;100944.97;4935262;28;1873;-60
2023/02/19 00:23:31;;;;;;;;;;;;;;;19.85;53.59;100942.09;4937072;29;2780;-60
2023/02/19 00:26:04;;;;;;;;;;;;;;;19.84;53.39;100929.13;4937736;28;1915;-60
2023/02/19 00:28:43;;;;;;;;;;;;;;;19.84;53.52;100935.63;4936487;29;2756;-60
2023/02/19 00:31:17;;;;;;;;;;;;;;;19.84;53.47;100932.00;4936160;29;2833;-60
2023/02/19 00:33:44;;;;;;;;;;;;;;;19.84;53.44;100920.50;4934168;28;2454;-60
2023/02/19 00:36:10;;;;;;;;;;;;;;;19.83;53.50;100928.38;4934389;28;2926;-60
2023/02/19 00:38:37;;;;;;;;;;;;;;;19.83;53.32;100921.88;4920533;29;2654;-60
2023/02/19 00:41:17;;;;;;;;;;;;;;;19.82;53.35;100917.53;4938615;29;2807;-60
2023/02/19 00:43:44;;;;;;;;;;;;;;;19.82;53.28;100931.91;4923703;29;2695;-60
2023/02/19 00:46:11;;;;;;;;;;;;;;;19.81;53.48;100921.78;4932681;28;2868;-60
2023/02/19 00:48:37;;;;;;;;;;;;;;;19.80;53.45;100920.31;4936756;28;2745;-60
2023/02/19 00:51:04;;;;;;;;;;;;;;;19.79;53.42;100908.06;4935907;28;2700;-60
2023/02/19 00:53:30;;;;;;;;;;;;;;;19.79;53.55;100907.31;4919981;29;2578;-61
2023/02/19 00:55:56;;;;;;;;;;;;;;;19.78;53.34;100906.56;4920298;29;2720;-60
2023/02/19 00:58:23;;;;;;;;;;;;;;;19.78;53.43;100906.56;4919965;29;2972;-61
2023/02/19 01:00:49;;;;;;;;;;;;;;;19.78;53.50;100905.84;4934187;28;3027;-60
2023/02/19 01:03:15;;;;;;;;;;;;;;;19.76;53.34;100900.72;4935994;28;2755;-60
2023/02/19 01:05:42;;;;;;;;;;;;;;;19.77;53.40;100907.22;4938112;28;2087;-60
2023/02/19 01:08:08;;;;;;;;;;;;;;;19.76;53.34;100908.59;4933936;28;2789;-60
2023/02/19 01:10:34;;;;;;;;;;;;;;;19.75;53.30;100902.13;4936880;29;2757;-60
2023/02/19 01:13:01;;;;;;;;;;;;;;;19.77;53.35;100901.47;4926582;29;2749;-60
2023/02/19 01:15:27;;;;;;;;;;;;;;;19.77;53.32;100881.34;4934015;28;2734;-60
2023/02/19 01:17:53;;;;;;;;;;;;;;;19.78;53.37;100874.22;4938165;28;2176;-60
2023/02/19 01:20:20;;;;;;;;;;;;;;;19.80;53.23;100851.34;4937893;28;2757;-60
2023/02/19 01:22:46;;;;;;;;;;;;;;;19.81;53.34;100836.34;4941546;29;1715;-60
2023/02/19 01:25:12;;;;;;;;;;;;;;;19.84;53.28;100855.16;4937107;28;2685;-60
2023/02/19 01:27:39;;;;;;;;;;;;;;;19.86;53.49;100866.03;4935352;28;2896;-60
2023/02/19 01:30:05;;;;;;;;;;;;;;;19.86;53.51;100866.03;4936593;28;2947;-60
2023/02/19 01:32:32;;;;;;;;;;;;;;;19.88;53.59;100863.22;4930417;29;2988;-60
2023/02/19 01:34:58;;;;;;;;;;;;;;;19.88;53.75;100863.22;4937781;28;2774;-61
2023/02/19 01:37:25;;;;;;;;;;;;;;;19.88;53.72;100855.38;4937771;28;1735;-60
2023/02/19 01:39:51;;;;;;;;;;;;;;;19.87;53.30;100853.84;4913344;29;2883;-60
2023/02/19 01:42:17;;;;;;;;;;;;;;;19.88;53.34;100854.59;4935745;28;2689;-60
2023/02/19 01:44:44;;;;;;;;;;;;;;;19.88;53.51;100848.84;4939002;28;2662;-60
2023/02/19 01:47:10;;;;;;;;;;;;;;;19.87;53.18;100838.75;4919986;29;1915;-60
2023/02/19 01:49:38;;;;;;;;;;;;;;;19.87;53.34;100839.50;4933819;28;2728;-60
2023/02/19 01:52:06;;;;;;;;;;;;;;;19.87;53.39;100838.75;4935184;28;2724;-60
2023/02/19 01:54:33;;;;;;;;;;;;;;;19.86;53.24;100834.41;4927138;29;2548;-60
2023/02/19 01:57:00;;;;;;;;;;;;;;;19.87;53.22;100841.63;4936290;28;2693;-60
2023/02/19 01:59:27;;;;;;;;;;;;;;;19.87;53.54;100835.88;4934867;28;2884;-60
2023/02/19 02:01:53;;;;;;;;;;;;;;;19.86;53.37;100831.53;4933399;28;2854;-60
2023/02/19 02:04:19;;;;;;;;;;;;;;;19.86;53.39;100837.28;4928709;28;2002;-60
2023/02/19 02:06:55;;;;;;;;;;;;;;;19.84;53.41;100820.69;4931799;28;2725;-60
2023/02/19 02:12:08;;;;;;;;;;;;;;;19.83;53.75;100838.56;4913782;29;2552;-59
2023/02/19 02:14:35;;;;;;;;;;;;;;;19.83;53.75;100833.53;4932778;28;2955;-60
2023/02/19 02:17:17;;;;;;;;;;;;;;;19.82;53.38;100828.47;4936570;28;2769;-60
2023/02/19 02:19:47;;;;;;;;;;;;;;;19.81;53.43;100830.59;4934228;28;2322;-60
2023/02/19 02:22:19;;;;;;;;;;;;;;;19.81;53.53;100829.84;4921487;28;2857;-60
2023/02/19 02:24:54;;;;;;;;;;;;;;;19.81;53.40;100829.84;4924075;29;2391;-60
2023/02/19 02:27:38;;;;;;;;;;;;;;;19.80;53.60;100828.34;4924643;29;2862;-60
2023/02/19 02:30:24;;;;;;;;;;;;;;;19.79;53.50;100827.63;4921901;29;2769;-60
2023/02/19 02:33:09;;;;;;;;;;;;;;;19.79;53.59;100824.00;4922363;29;2726;-60
2023/02/19 02:35:44;;;;;;;;;;;;;;;19.78;53.56;100813.91;4916733;28;2846;-59
2023/02/19 02:38:11;;;;;;;;;;;;;;;19.78;53.51;100816.75;4908016;29;2891;-60
2023/02/19 02:40:38;;;;;;;;;;;;;;;19.76;53.48;100805.19;4916678;29;2680;-60
2023/02/19 02:43:04;;;;;;;;;;;;;;;19.76;53.64;100813.78;4924846;29;2768;-60
2023/02/19 02:45:34;;;;;;;;;;;;;;;19.76;53.43;100813.78;4920273;28;2834;-60
2023/02/19 02:48:16;;;;;;;;;;;;;;;19.76;53.56;100822.41;4935774;28;1982;-59
2023/02/19 02:59:04;;;;;;;;;;;;;;;19.73;53.60;100812.22;4924551;28;3170;-59
2023/02/19 03:04:25;;;;;;;;;;;;;;;19.72;53.61;100816.47;4919450;29;2876;-60
2023/02/19 03:06:51;;;;;;;;;;;;;;;19.70;53.63;100825.75;4920033;29;1914;-60
2023/02/19 03:09:29;;;;;;;;;;;;;;;19.70;53.59;100824.97;4940849;29;2827;-60
2023/02/19 03:20:42;;;;;;;;;;;;;;;19.67;53.35;100833.47;4915974;29;2617;-60
2023/02/19 03:23:08;;;;;;;;;;;;;;;19.66;53.31;100832.00;4912225;29;2932;-60
2023/02/19 03:31:17;;;;;;;;;;;;;;;19.65;53.31;100842.00;4938195;28;2538;-59
2023/02/19 03:33:44;;;;;;;;;;;;;;;19.66;53.30;100842.75;4939133;28;3023;-60
2023/02/19 03:36:11;;;;;;;;;;;;;;;19.68;53.30;100842.84;4919942;29;2300;-60
2023/02/19 03:38:39;;;;;;;;;;;;;;;19.71;53.13;100843.72;4930384;29;2163;-60
2023/02/19 03:41:08;;;;;;;;;;;;;;;19.73;53.02;100846.69;4930188;29;1892;-60
2023/02/19 03:43:47;;;;;;;;;;;;;;;19.74;53.37;100843.16;4926381;29;3637;-60
2023/02/19 03:46:16;;;;;;;;;;;;;;;19.77;53.28;100844.00;4904074;29;2600;-60
2023/02/19 03:48:50;;;;;;;;;;;;;;;19.78;53.29;100857.00;4920232;29;2323;-60
2023/02/19 03:51:24;;;;;;;;;;;;;;;19.79;53.19;100856.34;4931007;28;2779;-60
2023/02/19 03:53:52;;;;;;;;;;;;;;;19.81;53.39;100864.31;4915370;29;2824;-60
2023/02/19 03:56:21;;;;;;;;;;;;;;;19.83;53.44;100861.53;4903349;29;2629;-60
2023/02/19 03:58:50;;;;;;;;;;;;;;;19.82;53.32;100871.56;4923126;29;2778;-60
2023/02/19 04:01:18;;;;;;;;;;;;;;;19.82;53.09;100869.44;4937455;28;2887;-60
2023/02/19 04:03:49;;;;;;;;;;;;;;;19.83;52.99;100867.28;4920798;29;1800;-59
2023/02/19 04:06:16;;;;;;;;;;;;;;;19.82;53.28;100872.31;4929759;29;2744;-60
2023/02/19 04:08:44;;;;;;;;;;;;;;;19.84;53.34;100866.66;4935719;28;2398;-60
2023/02/19 04:11:10;;;;;;;;;;;;;;;19.83;53.43;100861.53;4919739;29;2296;-60
2023/02/19 04:13:45;;;;;;;;;;;;;;;19.85;53.17;100876.00;4917881;29;2733;-60
2023/02/19 04:16:13;;;;;;;;;;;;;;;19.84;53.40;100878.16;4924310;29;1763;-60
2023/02/19 04:18:40;;;;;;;;;;;;;;;19.87;53.27;100881.88;4935518;28;2478;-60
2023/02/19 04:21:06;;;;;;;;;;;;;;;19.87;53.15;100884.75;4934679;29;2566;-61
2023/02/19 04:23:34;;;;;;;;;;;;;;;19.87;53.11;100891.22;4936022;28;2913;-60
2023/02/19 04:26:00;;;;;;;;;;;;;;;19.87;53.19;100891.22;4925987;29;2714;-60
2023/02/19 04:28:27;;;;;;;;;;;;;;;19.88;53.33;100904.22;4927335;29;2626;-60
2023/02/19 04:30:53;;;;;;;;;;;;;;;19.89;53.57;100899.22;4934624;28;2617;-60
2023/02/19 04:33:20;;;;;;;;;;;;;;;19.89;53.15;100910.69;4932009;29;2641;-60
2023/02/19 04:35:46;;;;;;;;;;;;;;;19.89;53.25;100904.94;4938284;29;2445;-60
2023/02/19 04:38:13;;;;;;;;;;;;;;;19.89;53.11;100907.81;4934965;29;2754;-60
2023/02/19 04:40:39;;;;;;;;;;;;;;;19.90;53.17;100912.19;4936731;29;3081;-60
2023/02/19 04:43:05;;;;;;;;;;;;;;;19.91;53.40;100902.19;4932463;29;2865;-60
2023/02/19 04:45:32;;;;;;;;;;;;;;;19.92;53.10;100912.28;4934408;29;2659;-60
2023/02/19 04:47:58;;;;;;;;;;;;;;;19.93;53.13;100910.91;4936364;29;3033;-60
2023/02/19 04:50:24;;;;;;;;;;;;;;;19.93;53.11;100905.16;4936621;28;2897;-59
2023/02/19 04:52:51;;;;;;;;;;;;;;;19.94;53.31;100914.50;4941522;29;1892;-60
2023/02/19 04:55:17;;;;;;;;;;;;;;;19.93;53.30;100913.00;4935723;29;2334;-60
2023/02/19 04:57:43;;;;;;;;;;;;;;;19.92;53.44;100915.16;4938901;29;2860;-59
2023/02/19 05:00:10;;;;;;;;;;;;;;;19.94;53.27;100911.63;4936759;29;2725;-59
2023/02/19 05:02:36;;;;;;;;;;;;;;;19.94;53.19;100918.13;4939450;29;1809;-60
2023/02/19 05:05:03;;;;;;;;;;;;;;;19.94;53.21;100911.63;4939960;28;2767;-59
2023/02/19 05:07:29;;;;;;;;;;;;;;;19.94;53.39;100914.50;4937692;29;2772;-60
2023/02/19 05:09:55;;;;;;;;;;;;;;;19.94;53.04;100918.13;4938479;29;2928;-60
2023/02/19 05:12:22;;;;;;;;;;;;;;;19.95;53.30;100919.63;4936848;29;2431;-59
2023/02/19 05:14:48;;;;;;;;;;;;;;;19.96;53.28;100915.34;4936490;29;2733;-60
2023/02/19 05:17:14;;;;;;;;;;;;;;;19.96;53.14;100921.09;4931996;28;2820;-59
2023/02/19 05:19:41;;;;;;;;;;;;;;;19.96;53.27;100909.59;4937999;29;2674;-60
2023/02/19 05:22:07;;;;;;;;;;;;;;;19.97;53.34;100911.09;4938044;29;2796;-60
2023/02/19 05:24:34;;;;;;;;;;;;;;;19.97;53.07;100922.56;4938476;29;1838;-60
2023/02/19 05:27:00;;;;;;;;;;;;;;;19.97;53.14;100925.44;4935821;29;2831;-60
2023/02/19 05:29:26;;;;;;;;;;;;;;;19.96;53.29;100932.59;4927259;28;2761;-60
2023/02/19 05:31:52;;;;;;;;;;;;;;;19.96;53.15;100926.84;4933841;28;2885;-60
2023/02/19 05:34:19;;;;;;;;;;;;;;;19.98;53.29;100924.09;4941367;29;1676;-60
2023/02/19 05:36:45;;;;;;;;;;;;;;;19.97;53.09;100928.31;4932567;28;2786;-60
2023/02/19 05:39:12;;;;;;;;;;;;;;;19.99;53.37;100927.69;4939059;29;1782;-60
2023/02/19 05:41:38;;;;;;;;;;;;;;;19.98;53.23;100935.56;4934134;28;2906;-60
2023/02/19 05:44:04;;;;;;;;;;;;;;;19.98;53.29;100929.84;4934112;29;2631;-59
2023/02/19 05:46:31;;;;;;;;;;;;;;;19.99;53.24;100930.56;4941035;29;2565;-60
2023/02/19 05:48:58;;;;;;;;;;;;;;;20.00;53.27;100926.31;4935286;29;2465;-60
2023/02/19 05:51:24;;;;;;;;;;;;;;;19.99;53.21;100931.31;4937474;28;2479;-60
2023/02/19 05:53:51;;;;;;;;;;;;;;;19.99;53.24;100936.31;4936956;29;2718;-60
2023/02/19 05:56:33;;;;;;;;;;;;;;;19.99;53.41;100937.06;4935324;29;2914;-60
2023/02/19 05:59:02;;;;;;;;;;;;;;;19.99;53.33;100944.94;4935624;29;2626;-60
2023/02/19 06:01:29;;;;;;;;;;;;;;;20.00;53.31;100944.31;4938831;28;2265;-60
2023/02/19 06:03:55;;;;;;;;;;;;;;;19.99;53.44;100942.81;4934705;28;2713;-60
2023/02/19 06:06:23;;;;;;;;;;;;;;;20.01;53.22;100945.78;4935324;29;2834;-60
2023/02/19 06:08:49;;;;;;;;;;;;;;;20.01;53.11;100950.78;4934058;28;2697;-60
2023/02/19 06:11:16;;;;;;;;;;;;;;;20.03;53.39;100948.03;4937742;29;2398;-59
2023/02/19 06:13:42;;;;;;;;;;;;;;;20.02;53.05;100941.53;4934080;29;2762;-60
2023/02/19 06:16:08;;;;;;;;;;;;;;;20.02;53.51;100947.28;4932204;28;2894;-60
2023/02/19 06:18:35;;;;;;;;;;;;;;;20.03;53.24;100954.50;4934949;28;2899;-60
2023/02/19 06:21:02;;;;;;;;;;;;;;;20.02;53.18;100941.53;4935156;29;2673;-60
2023/02/19 06:23:28;;;;;;;;;;;;;;;20.02;53.08;100944.41;4936199;28;2713;-60
2023/02/19 06:26:03;;;;;;;;;;;;;;;20.03;53.16;100943.00;4930626;29;2832;-60
2023/02/19 06:28:29;;;;;;;;;;;;;;;20.03;53.16;100953.75;4932193;28;2763;-61
2023/02/19 06:30:57;;;;;;;;;;;;;;;20.04;53.30;100956.00;4938440;29;2700;-60
2023/02/19 06:33:23;;;;;;;;;;;;;;;20.04;53.15;100958.13;4937290;29;2981;-60
2023/02/19 06:35:49;;;;;;;;;;;;;;;20.04;53.22;100984.75;4933401;28;2657;-60
2023/02/19 06:38:15;;;;;;;;;;;;;;;20.06;53.10;100987.69;4935282;29;1968;-60
2023/02/19 06:40:42;;;;;;;;;;;;;;;20.05;53.08;100997.72;4930393;29;2806;-60
2023/02/19 06:43:08;;;;;;;;;;;;;;;20.06;53.15;100998.47;4936168;28;2438;-60
2023/02/19 06:45:34;;;;;;;;;;;;;;;20.06;53.21;101004.22;4938135;29;2629;-60
2023/02/19 06:48:01;;;;;;;;;;;;;;;20.05;53.24;101014.97;4936168;29;1953;-60
2023/02/19 06:50:27;;;;;;;;;;;;;;;20.05;53.29;101014.97;4932351;29;2698;-60
2023/02/19 06:52:54;;;;;;;;;;;;;;;20.05;53.14;101031.47;4931999;28;2370;-60
2023/02/19 06:55:20;;;;;;;;;;;;;;;20.05;53.17;101028.59;4939808;29;2510;-60
2023/02/19 06:57:46;;;;;;;;;;;;;;;20.06;53.33;101032.97;4932582;29;2987;-59
2023/02/19 07:00:13;;;;;;;;;;;;;;;20.06;53.14;101038.72;4936786;29;2777;-60
2023/02/19 07:02:39;;;;;;;;;;;;;;;20.07;53.21;101051.72;4938856;29;2896;-60
2023/02/19 07:05:05;;;;;;;;;;;;;;;20.08;53.15;101042.44;4934165;29;2915;-60
2023/02/19 07:07:32;;;;;;;;;;;;;;;20.08;53.29;101041.69;4934855;29;1972;-60
2023/02/19 07:09:58;;;;;;;;;;;;;;;20.09;53.22;101049.69;4933010;29;2649;-60
2023/02/19 07:12:24;;;;;;;;;;;;;;;20.11;53.08;101045.41;4931936;29;3082;-60
2023/02/19 07:14:51;;;;;;;;;;;;;;;20.09;53.25;101055.44;4930484;29;2741;-60
2023/02/19 07:17:17;;;;;;;;;;;;;;;20.08;53.29;101059.69;4935074;28;2875;-60
2023/02/19 07:19:43;;;;;;;;;;;;;;;20.09;53.18;101060.44;4931648;29;2761;-59
2023/02/19 07:22:10;;;;;;;;;;;;;;;20.09;53.35;101063.31;4935248;29;2776;-60
2023/02/19 07:24:36;;;;;;;;;;;;;;;20.09;53.19;101066.19;4933442;29;2907;-60
2023/02/19 07:27:02;;;;;;;;;;;;;;;20.08;53.28;101065.44;4935560;29;2697;-60
2023/02/19 07:29:29;;;;;;;;;;;;;;;20.08;53.09;101071.19;4935087;29;2896;-60
2023/02/19 07:31:55;;;;;;;;;;;;;;;20.08;53.06;101076.94;4931478;29;2802;-60
2023/02/19 07:34:21;;;;;;;;;;;;;;;20.09;53.13;101081.31;4927759;29;2801;-60
2023/02/19 07:36:48;;;;;;;;;;;;;;;20.09;53.21;101086.31;4929993;28;3266;-61
2023/02/19 07:39:14;;;;;;;;;;;;;;;20.09;53.30;101084.19;4934029;29;1810;-60
2023/02/19 07:41:41;;;;;;;;;;;;;;;20.11;53.13;101091.41;4938927;29;2673;-60
2023/02/19 07:44:07;;;;;;;;;;;;;;;20.12;53.22;101095.78;4939643;29;2295;-60
2023/02/19 07:46:33;;;;;;;;;;;;;;;20.13;53.30;101095.13;4935188;29;2840;-60
2023/02/19 07:49:00;;;;;;;;;;;;;;;20.12;53.05;101101.53;4931179;29;2742;-60
2023/02/19 07:51:26;;;;;;;;;;;;;;;20.12;53.22;101110.16;4937720;29;2928;-60
2023/02/19 07:53:52;;;;;;;;;;;;;;;20.12;53.00;101113.03;4936202;28;2331;-60
2023/02/19 07:56:19;;;;;;;;;;;;;;;20.13;53.22;101126.00;4937501;28;2840;-60
2023/02/19 07:58:45;;;;;;;;;;;;;;;20.09;53.11;101127.31;4935103;28;2651;-59
2023/02/19 08:01:12;;;;;;;;;;;;;;;20.14;52.99;101141.91;4934235;28;2809;-59
2023/02/19 08:03:39;;;;;;;;;;;;;;;19.83;53.01;101132.41;4930540;28;2492;-60
2023/02/19 08:06:06;;;;;;;;;;;;;;;19.96;53.13;101142.41;4936644;28;2785;-60
2023/02/19 08:08:32;;;;;;;;;;;;;;;20.04;52.84;101145.72;4935475;28;2859;-59
2023/02/19 08:13:47;;;;;;;;;;;;;;;20.06;52.57;101153.69;4937596;29;2685;-60
2023/02/19 08:16:16;;;;;;;;;;;;;;;20.07;52.48;101161.69;4933368;28;2888;-60
2023/02/19 08:18:55;;;;;;;;;;;;;;;20.17;52.52;101163.59;4938994;29;2829;-60
2023/02/19 08:21:21;;;;;;;;;;;;;;;20.22;52.28;101171.06;4937063;29;2813;-59
2023/02/19 08:23:48;;;;;;;;;;;;;;;20.21;52.62;101175.31;4932841;29;2944;-59
2023/02/19 08:26:16;;;;;;;;;;;;;;;20.20;52.39;101179.56;4932782;29;2947;-60
2023/02/19 08:28:42;;;;;;;;;;;;;;;20.07;51.03;101196.19;4936010;29;2910;-59
2023/02/19 08:31:09;;;;;;;;;;;;;;;19.98;51.58;101200.03;4932092;28;2994;-60
2023/02/19 08:33:36;;;;;;;;;;;;;;;19.97;50.47;101215.75;4934340;28;3046;-59
2023/02/19 08:36:03;;;;;;;;;;;;;;;19.95;49.88;101209.94;4940837;28;2898;-59
2023/02/19 08:38:30;;;;;;;;;;;;;;;19.92;49.35;101210.44;4932387;28;3197;-59
2023/02/19 08:40:57;;;;;;;;;;;;;;;19.95;49.93;101214.91;4928230;28;2921;-60
2023/02/19 08:43:23;;;;;;;;;;;;;;;19.96;49.35;101225.78;4935435;29;3112;-61
2023/02/19 08:45:51;;;;;;;;;;;;;;;19.94;48.09;101222.78;4933742;29;2884;-60
2023/02/19 08:48:17;;;;;;;;;;;;;;;19.92;47.56;101222.69;4938724;29;1941;-59
2023/02/19 08:50:56;;;;;;;;;;;;;;;19.92;46.94;101234.19;4933816;28;2856;-59
2023/02/19 08:53:23;;;;;;;;;;;;;;;19.92;47.08;101236.31;4933894;29;3066;-59
2023/02/19 08:55:50;;;;;;;;;;;;;;;19.92;47.54;101231.31;4933272;29;3197;-59
2023/02/19 08:58:16;;;;;;;;;;;;;;;19.97;47.83;101238.75;4937402;28;2808;-59
2023/02/19 09:00:42;;;;;;;;;;;;;;;20.08;48.04;101240.06;4937581;29;2818;-59
2023/02/19 09:03:09;;;;;;;;;;;;;;;17.59;42.22;101233.47;4939012;28;2917;-60
2023/02/19 09:05:36;;;;;;;;;;;;;;;17.37;41.67;101241.34;4935545;28;2710;-62
2023/02/19 09:08:02;;;;;;;;;;;;;;;18.35;42.63;101243.88;4932983;28;3385;-59
2023/02/19 09:10:28;;;;;;;;;;;;;;;19.05;42.91;101242.25;4931607;29;3005;-59
2023/02/19 09:12:55;;;;;;;;;;;;;;;19.52;43.94;101247.78;4928394;28;3131;-59
2023/02/19 09:15:21;;;;;;;;;;;;;;;19.74;43.88;101250.41;4934065;28;3082;-59
2023/02/19 09:17:51;;;;;;;;;;;;;;;19.88;44.26;101248.31;4935569;28;2587;-60
2023/02/19 09:20:17;;;;;;;;;;;;;;;19.92;44.56;101254.28;4935508;29;2935;-59
2023/02/19 09:22:44;;;;;;;;;;;;;;;19.94;44.76;101257.28;4935334;29;2529;-60
2023/02/19 09:25:10;;;;;;;;;;;;;;;19.98;45.27;101257.50;4930800;28;2901;-60
2023/02/19 09:27:36;;;;;;;;;;;;;;;20.01;45.56;101267.72;4935082;28;2567;-59
2023/02/19 09:30:03;;;;;;;;;;;;;;;20.05;45.78;101270.09;4935417;28;2759;-60
2023/02/19 09:32:29;;;;;;;;;;;;;;;20.04;45.77;101275.09;4930602;28;2922;-60
2023/02/19 09:34:56;;;;;;;;;;;;;;;20.07;46.28;101281.69;4934228;28;2844;-59
2023/02/19 09:37:26;;;;;;;;;;;;;;;20.09;46.94;101273.19;4930922;28;2905;-59
2023/02/19 09:39:52;;;;;;;;;;;;;;;20.11;47.35;101281.91;4932254;28;2702;-58
2023/02/19 09:42:26;;;;;;;;;;;;;;;20.13;47.56;101289.91;4932766;28;2731;-60
2023/02/19 09:44:53;;;;;;;;;;;;;;;20.15;47.71;101292.88;4927019;28;3077;-60
2023/02/19 09:47:20;;;;;;;;;;;;;;;20.17;47.98;101301.63;4931764;28;2946;-57
2023/02/19 09:49:50;;;;;;;;;;;;;;;20.17;48.50;101295.88;4937681;29;2235;-58
2023/02/19 09:52:18;;;;;;;;;;;;;;;20.20;48.51;101297.47;4930835;29;2780;-58
2023/02/19 09:54:44;;;;;;;;;;;;;;;20.22;48.94;101306.19;4933546;28;2896;-58
2023/02/19 09:57:14;;;;;;;;;;;;;;;20.21;49.15;101307.59;4933385;28;2783;-60
2023/02/19 09:59:45;;;;;;;;;;;;;;;20.21;49.31;101319.09;4928037;28;2935;-60
2023/02/19 10:02:21;;;;;;;;;;;;;;;20.22;49.93;101317.72;4936136;28;3082;-60
2023/02/19 10:04:47;;;;;;;;;;;;;;;20.23;49.75;101327.84;4929551;29;3747;-59
2023/02/19 10:07:14;;;;;;;;;;;;;;;20.24;50.56;101329.31;4931427;28;2913;-60
2023/02/19 10:09:40;;;;;;;;;;;;;;;20.28;50.46;101326.66;4930531;28;2951;-60
2023/02/19 10:12:14;;;;;;;;;;;;;;;20.28;50.62;101330.28;4924563;28;2896;-59
2023/02/19 10:14:44;;;;;;;;;;;;;;;20.28;50.93;101338.19;4934936;28;3507;-60
2023/02/19 10:17:12;;;;;;;;;;;;;;;20.27;50.98;101340.31;4934543;28;2932;-61
2023/02/19 10:19:39;;;;;;;;;;;;;;;20.28;51.02;101346.81;4933896;28;2823;-60
2023/02/19 10:22:05;;;;;;;;;;;;;;;20.29;51.63;101354.81;4918060;28;2931;-59
2023/02/19 10:24:31;;;;;;;;;;;;;;;20.29;51.51;101354.03;4934300;28;2718;-60
2023/02/19 10:26:58;;;;;;;;;;;;;;;20.29;51.59;101360.56;4936100;28;2795;-60
2023/02/19 10:29:26;;;;;;;;;;;;;;;20.30;51.69;101356.28;4935070;28;3168;-60
2023/02/19 10:32:10;;;;;;;;;;;;;;;20.31;51.82;101368.53;4933107;28;2811;-62
2023/02/19 10:34:37;;;;;;;;;;;;;;;20.33;51.92;101370.78;4930873;28;2979;-60
2023/02/19 10:37:03;;;;;;;;;;;;;;;20.33;52.22;101376.53;4933064;28;2862;-60
2023/02/19 10:39:42;;;;;;;;;;;;;;;20.34;52.31;101375.91;4938212;29;2741;-61
2023/02/19 10:42:13;;;;;;;;;;;;;;;20.35;52.23;101386.00;4933069;28;2912;-60
2023/02/19 10:44:41;;;;;;;;;;;;;;;20.38;52.47;101390.47;4936844;29;3178;-60
2023/02/19 10:47:07;;;;;;;;;;;;;;;19.77;50.26;101392.81;4931189;28;2977;-61
2023/02/19 10:49:37;;;;;;;;;;;;;;;19.12;47.82;101381.88;4929547;28;2664;-61
2023/02/19 10:52:19;;;;;;;;;;;;;;;18.68;44.84;101394.25;4931636;28;2942;-60
2023/02/19 10:54:45;;;;;;;;;;;;;;;18.67;43.26;101395.59;4937540;28;2580;-59
2023/02/19 10:57:18;;;;;;;;;;;;;;;18.81;42.77;101414.50;4933462;28;2604;-59
2023/02/19 10:59:48;;;;;;;;;;;;;;;19.34;42.29;101410.44;4934339;29;2446;-59
2023/02/19 11:02:18;;;;;;;;;;;;;;;19.37;44.91;101420.66;4932655;29;2826;-59
2023/02/19 11:05:03;;;;;;;;;;;;;;;19.71;45.82;101418.34;4928840;29;3121;-59
2023/02/19 11:07:29;;;;;;;;;;;;;;;19.91;45.72;101424.53;4933454;29;2800;-61
2023/02/19 11:09:55;;;;;;;;;;;;;;;20.02;45.85;101421.59;4926187;28;3230;-64
2023/02/19 11:12:22;;;;;;;;;;;;;;;20.15;45.80;101434.50;4938405;29;2302;-61
2023/02/19 11:14:48;;;;;;;;;;;;;;;20.17;46.16;101445.41;4930970;28;2875;-60
2023/02/19 11:17:21;;;;;;;;;;;;;;;20.18;46.56;101447.66;4937198;28;2883;-60
2023/02/19 11:19:48;;;;;;;;;;;;;;;20.28;46.70;101450.34;4931321;28;2828;-73
2023/02/19 11:22:19;;;;;;;;;;;;;;;20.27;47.11;101457.44;4928694;28;2776;-70
2023/02/19 11:24:49;;;;;;;;;;;;;;;20.15;47.33;101451.78;4924691;28;2826;-70
2023/02/19 11:27:19;;;;;;;;;;;;;;;20.11;47.68;101447.91;4934427;29;2721;-70
2023/02/19 11:29:46;;;;;;;;;;;;;;;20.12;47.61;101452.31;4929443;28;3081;-69
2023/02/19 11:32:20;;;;;;;;;;;;;;;20.14;47.64;101444.53;4934756;28;2177;-70
2023/02/19 11:34:47;;;;;;;;;;;;;;;20.16;47.60;101455.38;4919411;29;2940;-71
2023/02/19 11:37:14;;;;;;;;;;;;;;;20.17;47.73;101462.66;4933214;28;2883;-70
2023/02/19 11:39:41;;;;;;;;;;;;;;;20.18;47.70;101464.13;4940556;28;2893;-71
2023/02/19 11:42:20;;;;;;;;;;;;;;;20.21;47.71;101454.25;4936944;28;2985;-69
2023/02/19 11:45:04;;;;;;;;;;;;;;;20.21;47.77;101451.38;4934894;29;1925;-69
2023/02/19 11:47:36;;;;;;;;;;;;;;;20.23;47.90;101455.13;4933810;28;2935;-70
2023/02/19 11:50:10;;;;;;;;;;;;;;;20.22;48.04;101447.09;4924267;29;3067;-70
2023/02/19 11:52:50;;;;;;;;;;;;;;;20.25;48.06;101445.88;4931533;28;2837;-70
2023/02/19 11:55:33;;;;;;;;;;;;;;;20.25;48.39;101448.75;4933941;28;2891;-70
2023/02/19 11:57:59;;;;;;;;;;;;;;;20.27;48.14;101445.94;4935788;28;2762;-70
2023/02/19 12:00:26;;;;;;;;;;;;;;;20.27;48.49;101457.44;4933086;29;2966;-70
2023/02/19 12:03:11;;;;;;;;;;;;;;;20.27;48.50;101471.84;4938211;28;2724;-70
2023/02/19 12:05:56;;;;;;;;;;;;;;;20.27;48.46;101474.72;4933379;28;2883;-69
2023/02/19 12:08:27;;;;;;;;;;;;;;;20.27;48.60;101466.84;4935488;28;2987;-70
2023/02/19 12:11:01;;;;;;;;;;;;;;;20.28;48.40;101473.34;4921977;29;3053;-70
2023/02/19 12:13:32;;;;;;;;;;;;;;;20.29;48.73;101477.69;4939809;28;2826;-70
2023/02/19 12:16:27;;;;;;;;;;;;;;;20.29;48.71;101474.81;4925177;29;2720;-70
2023/02/19 12:19:00;;;;;;;;;;;;;;;20.33;48.61;101480.06;4921906;28;2767;-70
2023/02/19 12:21:33;;;;;;;;;;;;;;;20.33;48.52;101480.81;4933949;29;2559;-69
2023/02/19 12:24:03;;;;;;;;;;;;;;;20.33;48.89;101480.06;4937375;28;2539;-70
2023/02/19 12:26:33;;;;;;;;;;;;;;;20.34;48.77;101490.97;4933053;28;2888;-70
2023/02/19 12:29:18;;;;;;;;;;;;;;;20.33;48.79;101492.31;4934428;28;2596;-70
2023/02/19 12:31:51;;;;;;;;;;;;;;;20.35;48.75;101497.44;4940083;28;3014;-70
2023/02/19 12:34:20;;;;;;;;;;;;;;;20.33;48.91;101509.59;4938991;29;2761;-70
2023/02/19 12:36:49;;;;;;;;;;;;;;;20.33;49.06;101498.06;4938113;29;2852;-69
2023/02/19 12:39:23;;;;;;;;;;;;;;;20.33;49.17;101500.94;4938699;28;2759;-70
2023/02/19 12:42:02;;;;;;;;;;;;;;;20.31;49.18;101500.84;4937339;29;2897;-70
2023/02/19 12:44:41;;;;;;;;;;;;;;;20.32;49.27;101508.09;4938138;29;3257;-69
2023/02/19 12:47:08;;;;;;;;;;;;;;;19.75;44.82;101499.78;4910817;29;3563;-61
2023/02/19 12:49:38;;;;;;;;;;;;;;;19.27;40.75;101506.22;4931456;28;2839;-62
2023/02/19 12:52:15;;;;;;;;;;;;;;;18.92;37.31;101507.69;4938377;29;2280;-61
2023/02/19 12:54:43;;;;;;;;;;;;;;;18.89;35.66;101522.53;4937961;28;2859;-62
2023/02/19 12:57:09;;;;;;;;;;;;;;;18.84;35.25;101522.28;4935230;28;2856;-62
2023/02/19 12:59:36;;;;;;;;;;;;;;;19.24;40.24;101525.41;4938919;29;2081;-62
2023/02/19 13:02:05;;;;;;;;;;;;;;;19.66;38.75;101518.66;4933715;28;2474;-62
2023/02/19 13:04:46;;;;;;;;;;;;;;;20.00;40.93;101516.34;4935810;28;2832;-62
2023/02/19 13:07:20;;;;;;;;;;;;;;;20.12;41.18;101518.44;4914135;29;2917;-62
2023/02/19 13:09:54;;;;;;;;;;;;;;;20.29;41.99;101520.84;4936991;29;2701;-62
2023/02/19 13:12:24;;;;;;;;;;;;;;;20.27;42.03;101535.09;4932597;28;2980;-61
2023/02/19 13:14:55;;;;;;;;;;;;;;;20.32;43.61;101530.34;4931802;28;2860;-61
2023/02/19 13:17:42;;;;;;;;;;;;;;;20.42;44.07;101530.94;4927779;28;2892;-61
2023/02/19 13:20:23;;;;;;;;;;;;;;;20.50;44.57;101545.75;4934279;29;2763;-60
2023/02/19 13:25:57;;;;;;;;;;;;;;;20.64;45.68;101532.22;4937394;29;1647;-62
2023/02/19 13:28:24;;;;;;;;;;;;;;;20.70;45.83;101540.44;4936478;29;3227;-66
2023/02/19 13:30:55;;;;;;;;;;;;;;;20.70;45.73;101540.44;4927080;28;3786;-66